createdAt,value
2022-10-26T00:01:10.539Z,19.05
2022-10-26T00:03:38.474Z,18.55
2022-10-26T00:06:10.683Z,18.13
2022-10-26T00:08:38.455Z,18.40
2022-10-26T00:11:06.563Z,18.77
2022-10-26T00:13:34.554Z,18.50
2022-10-26T00:16:01.755Z,19.00
2022-10-26T00:18:28.909Z,18.95
2022-10-26T00:20:55.901Z,19.65
2022-10-26T00:23:22.811Z,19.85
2022-10-26T00:25:57.079Z,19.58
2022-10-26T00:28:24.433Z,19.55
2022-10-26T00:30:51.523Z,19.25
2022-10-26T00:33:18.529Z,18.67
2022-10-26T00:35:49.155Z,18.35
2022-10-26T00:38:16.072Z,19.58
2022-10-26T00:40:44.387Z,17.77
2022-10-26T00:43:20.406Z,18.88
2022-10-26T00:45:49.556Z,17.70
2022-10-26T00:48:27.516Z,17.52
2022-10-26T00:50:55.889Z,18.02
2022-10-26T00:53:23.074Z,18.25
2022-10-26T00:55:52.660Z,18.77
2022-10-26T00:58:21.604Z,19.60
2022-10-26T01:00:49.611Z,20.27
2022-10-26T01:03:17.525Z,20.35
2022-10-26T01:05:47.594Z,21.48
2022-10-26T01:08:17.146Z,21.95
2022-10-26T01:10:44.406Z,20.45
2022-10-26T01:13:13.258Z,19.17
2022-10-26T01:16:01.715Z,18.38
2022-10-26T01:19:11.067Z,18.02
2022-10-26T01:21:52.834Z,17.48
2022-10-26T01:24:33.582Z,18.92
2022-10-26T01:27:12.449Z,20.60
2022-10-26T01:29:48.244Z,22.80
2022-10-26T01:32:21.059Z,21.60
2022-10-26T01:35:08.266Z,23.75
2022-10-26T01:37:41.754Z,22.98
2022-10-26T01:40:27.058Z,24.08
2022-10-26T01:42:56.724Z,23.67
2022-10-26T01:45:25.618Z,23.45
2022-10-26T01:47:54.528Z,23.02
2022-10-26T01:50:22.859Z,24.05
2022-10-26T01:52:50.853Z,23.98
2022-10-26T01:55:46.395Z,22.02
2022-10-26T01:58:43.140Z,22.05
2022-10-26T02:01:34.384Z,21.60
2022-10-26T02:04:10.083Z,22.52
2022-10-26T02:06:45.729Z,22.27
2022-10-26T02:09:20.727Z,20.80
2022-10-26T02:11:51.988Z,19.58
2022-10-26T02:14:54.967Z,20.10
2022-10-26T02:17:34.314Z,19.83
2022-10-26T02:20:08.722Z,20.45
2022-10-26T02:22:40.033Z,20.70
2022-10-26T02:25:15.068Z,20.45
2022-10-26T02:27:48.039Z,21.42
2022-10-26T02:30:15.681Z,20.50
2022-10-26T02:32:47.998Z,20.88
2022-10-26T02:35:17.639Z,20.73
2022-10-26T02:37:46.966Z,20.77
2022-10-26T02:40:17.508Z,20.45
2022-10-26T02:42:46.850Z,20.45
2022-10-26T02:45:19.134Z,21.45
2022-10-26T02:47:46.376Z,21.77
2022-10-26T02:50:13.918Z,21.92
2022-10-26T02:53:05.283Z,21.75
2022-10-26T02:55:40.743Z,22.75
2022-10-26T02:58:13.772Z,22.80
2022-10-26T03:00:41.964Z,21.92
2022-10-26T03:03:14.630Z,22.20
2022-10-26T03:05:43.355Z,23.13
2022-10-26T03:08:10.602Z,22.08
2022-10-26T03:10:42.308Z,22.90
2022-10-26T03:13:10.128Z,22.67
2022-10-26T03:15:37.613Z,23.95
2022-10-26T03:18:05.298Z,22.73
2022-10-26T03:20:32.657Z,23.67
2022-10-26T03:22:59.735Z,23.83
2022-10-26T03:25:26.827Z,22.85
2022-10-26T03:28:01.646Z,23.30
2022-10-26T03:30:29.867Z,23.63
2022-10-26T03:32:57.163Z,23.60
2022-10-26T03:35:24.587Z,23.65
2022-10-26T03:37:52.030Z,23.23
2022-10-26T03:40:19.250Z,23.95
2022-10-26T03:42:46.506Z,22.63
2022-10-26T03:45:13.548Z,23.83
2022-10-26T03:47:47.769Z,24.02
2022-10-26T03:50:17.575Z,23.88
2022-10-26T03:52:44.697Z,24.63
2022-10-26T03:55:11.699Z,25.30
2022-10-26T03:57:45.483Z,24.35
2022-10-26T04:00:15.701Z,24.52
2022-10-26T04:02:48.967Z,24.45
2022-10-26T04:05:16.954Z,23.25
2022-10-26T04:07:44.332Z,24.27
2022-10-26T04:10:11.606Z,23.08
2022-10-26T04:12:39.066Z,22.35
2022-10-26T04:15:07.480Z,24.23
2022-10-26T04:17:34.779Z,24.02
2022-10-26T04:20:01.835Z,23.35
2022-10-26T04:22:28.946Z,24.58
2022-10-26T04:24:55.904Z,24.35
2022-10-26T04:27:22.955Z,25.08
2022-10-26T04:29:49.856Z,25.95
2022-10-26T04:32:16.815Z,26.77
2022-10-26T04:34:43.803Z,26.27
2022-10-26T04:37:10.887Z,26.13
2022-10-26T04:39:37.968Z,24.83
2022-10-26T04:42:05.035Z,25.48
2022-10-26T04:44:32.698Z,24.58
2022-10-26T04:46:59.591Z,25.05
2022-10-26T04:49:26.629Z,24.60
2022-10-26T04:51:53.719Z,26.75
2022-10-26T04:54:20.942Z,24.58
2022-10-26T04:56:47.896Z,25.98
2022-10-26T04:59:15.027Z,24.48
2022-10-26T05:01:42.067Z,25.33
2022-10-26T05:04:09.033Z,25.33
2022-10-26T05:06:35.944Z,25.65
2022-10-26T05:09:02.953Z,26.65
2022-10-26T05:11:29.897Z,24.73
2022-10-26T05:13:56.862Z,25.33
2022-10-26T05:16:23.861Z,26.23
2022-10-26T05:18:50.816Z,25.85
2022-10-26T05:21:19.754Z,24.77
2022-10-26T05:23:52.613Z,25.67
2022-10-26T05:26:20.089Z,24.65
2022-10-26T05:28:47.115Z,24.13
2022-10-26T05:31:14.263Z,24.60
2022-10-26T05:33:41.275Z,24.13
2022-10-26T05:36:08.443Z,24.20
2022-10-26T05:38:35.359Z,23.13
2022-10-26T05:41:02.566Z,22.73
2022-10-26T05:43:30.352Z,25.00
2022-10-26T05:45:57.328Z,26.10
2022-10-26T05:48:24.295Z,24.85
2022-10-26T05:50:51.346Z,23.70
2022-10-26T05:53:18.224Z,23.13
2022-10-26T05:55:45.478Z,23.40
2022-10-26T05:58:14.759Z,22.10
2022-10-26T06:01:20.303Z,21.55
2022-10-26T06:03:56.206Z,21.42
2022-10-26T06:06:23.759Z,22.27
2022-10-26T06:08:51.053Z,21.02
2022-10-26T06:11:18.332Z,20.83
2022-10-26T06:13:45.761Z,19.98
2022-10-26T06:16:35.239Z,19.33
2022-10-26T06:19:34.211Z,20.02
2022-10-26T06:22:12.790Z,18.33
2022-10-26T06:24:53.512Z,16.98
2022-10-26T06:27:44.711Z,15.82
2022-10-26T06:30:12.222Z,16.40
2022-10-26T06:32:43.575Z,16.50
2022-10-26T06:35:34.348Z,16.65
2022-10-26T06:38:07.767Z,16.98
2022-10-26T06:40:37.558Z,17.15
2022-10-26T06:43:08.066Z,18.98
2022-10-26T06:45:35.719Z,20.55
2022-10-26T06:48:18.110Z,18.52
2022-10-26T06:50:53.382Z,18.55
2022-10-26T06:53:26.327Z,17.10
2022-10-26T06:55:53.798Z,17.13
2022-10-26T06:58:25.059Z,16.02
2022-10-26T07:00:54.795Z,16.58
2022-10-26T07:03:21.789Z,16.42
2022-10-26T07:05:49.607Z,15.60
2022-10-26T07:08:16.673Z,15.63
2022-10-26T07:10:43.736Z,15.88
2022-10-26T07:13:11.210Z,16.02
2022-10-26T07:15:39.939Z,15.68
2022-10-26T07:18:07.962Z,16.25
2022-10-26T07:20:39.936Z,15.98
2022-10-26T07:23:08.404Z,15.68
2022-10-26T07:25:39.226Z,15.02
2022-10-26T07:28:09.967Z,14.80
2022-10-26T07:30:38.466Z,15.23
2022-10-26T07:33:09.515Z,14.43
2022-10-26T07:35:36.863Z,15.10
2022-10-26T07:38:04.506Z,15.48
2022-10-26T07:40:32.177Z,13.27
2022-10-26T07:43:00.345Z,14.68
2022-10-26T07:45:28.825Z,15.13
2022-10-26T07:47:56.109Z,14.38
2022-10-26T07:50:23.853Z,11.73
2022-10-26T07:52:51.229Z,12.15
2022-10-26T07:55:19.243Z,9.60
2022-10-26T07:57:48.529Z,9.75
2022-10-26T08:00:19.506Z,8.52
2022-10-26T08:02:46.804Z,8.65
2022-10-26T08:05:13.905Z,8.57
2022-10-26T08:07:44.795Z,8.85
2022-10-26T08:10:12.575Z,8.13
2022-10-26T08:12:40.789Z,8.48
2022-10-26T08:15:08.450Z,8.32
2022-10-26T08:17:35.399Z,8.10
2022-10-26T08:20:02.751Z,7.03
2022-10-26T08:22:30.945Z,7.32
2022-10-26T08:24:58.190Z,7.03
2022-10-26T08:27:25.785Z,7.40
2022-10-26T08:29:52.868Z,6.65
2022-10-26T08:32:19.853Z,5.85
2022-10-26T08:34:46.878Z,6.10
2022-10-26T08:37:13.974Z,5.82
2022-10-26T08:39:40.875Z,6.07
2022-10-26T08:42:18.934Z,6.97
2022-10-26T08:44:48.183Z,6.43
2022-10-26T08:47:30.790Z,7.90
2022-10-26T08:50:10.519Z,6.45
2022-10-26T08:52:52.999Z,6.80
2022-10-26T08:55:25.670Z,7.57
2022-10-26T08:57:53.898Z,8.30
2022-10-26T09:00:23.348Z,7.38
2022-10-26T09:02:52.433Z,7.90
2022-10-26T09:05:38.841Z,8.05
2022-10-26T09:08:05.844Z,7.07
2022-10-26T09:11:08.579Z,7.00
2022-10-26T09:14:10.093Z,7.55
2022-10-26T09:16:47.037Z,7.03
2022-10-26T09:19:35.740Z,7.40
2022-10-26T09:22:18.076Z,6.60
2022-10-26T09:24:56.259Z,6.43
2022-10-26T09:27:34.959Z,6.70
2022-10-26T09:30:12.457Z,6.18
2022-10-26T09:32:44.796Z,5.40
2022-10-26T09:35:23.277Z,4.72
2022-10-26T09:38:03.923Z,4.90
2022-10-26T09:40:48.329Z,5.07
2022-10-26T09:43:24.626Z,6.47
2022-10-26T09:45:52.791Z,5.60
2022-10-26T09:48:41.431Z,5.72
2022-10-26T09:51:08.815Z,5.80
2022-10-26T09:53:35.898Z,5.43
2022-10-26T09:56:13.481Z,5.40
2022-10-26T09:59:02.303Z,5.28
2022-10-26T10:01:36.961Z,4.60
2022-10-26T10:04:26.109Z,4.85
2022-10-26T10:07:02.267Z,4.68
2022-10-26T10:09:29.473Z,5.50
2022-10-26T10:12:03.195Z,5.10
2022-10-26T10:14:39.905Z,4.35
2022-10-26T10:17:19.960Z,4.20
2022-10-26T10:19:47.201Z,4.40
2022-10-26T10:22:22.361Z,4.10
2022-10-26T10:24:56.591Z,3.00
2022-10-26T10:27:24.820Z,2.60
2022-10-26T10:29:59.950Z,3.15
2022-10-26T10:32:35.511Z,2.60
2022-10-26T10:35:29.760Z,2.50
2022-10-26T10:37:57.706Z,2.80
2022-10-26T10:40:27.791Z,2.10
2022-10-26T10:43:05.820Z,2.53
2022-10-26T10:45:33.836Z,2.45
2022-10-26T10:48:13.959Z,2.40
2022-10-26T10:51:03.500Z,2.28
2022-10-26T10:53:57.175Z,2.67
2022-10-26T10:56:34.881Z,2.78
2022-10-26T10:59:20.007Z,3.03
2022-10-26T11:02:03.515Z,2.70
2022-10-26T11:04:45.995Z,2.50
2022-10-26T11:07:15.002Z,2.42
2022-10-26T11:09:46.266Z,2.45
2022-10-26T11:12:19.677Z,2.45
2022-10-26T11:14:52.540Z,2.70
2022-10-26T11:17:26.984Z,2.60
2022-10-26T11:20:03.035Z,2.80
2022-10-26T11:22:56.698Z,3.10
2022-10-26T11:25:37.385Z,2.58
2022-10-26T11:28:16.148Z,2.50
2022-10-26T11:30:49.119Z,2.65
2022-10-26T11:33:23.183Z,2.90
2022-10-26T11:36:02.200Z,2.65
2022-10-26T11:38:57.425Z,2.80
2022-10-26T11:41:52.663Z,2.80
2022-10-26T11:44:37.416Z,2.72
2022-10-26T11:47:35.720Z,3.40
2022-10-26T11:50:17.172Z,3.00
2022-10-26T11:53:18.035Z,2.80
2022-10-26T11:55:56.448Z,2.97
2022-10-26T11:58:25.957Z,2.80
2022-10-26T12:01:01.848Z,2.80
2022-10-26T12:03:45.731Z,3.30
2022-10-26T12:06:20.316Z,4.10
2022-10-26T12:09:00.324Z,4.03
2022-10-26T12:11:30.331Z,3.22
2022-10-26T12:14:24.600Z,3.50
2022-10-26T12:16:57.335Z,3.05
2022-10-26T12:19:33.696Z,2.85
2022-10-26T12:22:01.086Z,3.10
2022-10-26T12:24:35.579Z,2.83
2022-10-26T12:27:05.284Z,2.63
2022-10-26T12:29:43.092Z,2.50
2022-10-26T12:32:28.804Z,2.60
2022-10-26T12:34:55.832Z,1.45
2022-10-26T12:37:30.285Z,2.00
2022-10-26T12:40:36.038Z,1.92
2022-10-26T12:43:15.094Z,1.90
2022-10-26T12:45:43.082Z,1.95
2022-10-26T12:48:40.065Z,1.50
2022-10-26T12:51:25.512Z,1.50
2022-10-26T12:54:04.444Z,1.70
2022-10-26T12:56:37.341Z,1.45
2022-10-26T12:59:12.946Z,1.90
2022-10-26T13:02:11.533Z,1.70
2022-10-26T13:04:47.159Z,1.98
2022-10-26T13:07:25.389Z,2.00
2022-10-26T13:10:05.807Z,2.38
2022-10-26T13:12:57.882Z,2.22
2022-10-26T13:15:39.421Z,2.22
2022-10-26T13:18:10.845Z,1.83
2022-10-26T13:20:53.093Z,2.33
2022-10-26T13:23:31.563Z,2.00
2022-10-26T13:26:07.108Z,1.75
2022-10-26T13:28:39.957Z,2.03
2022-10-26T13:31:28.068Z,1.75
2022-10-26T13:33:59.802Z,1.80
2022-10-26T13:36:42.715Z,1.70
2022-10-26T13:39:22.121Z,1.85
2022-10-26T13:41:52.564Z,2.10
2022-10-26T13:44:26.053Z,2.20
2022-10-26T13:47:02.967Z,2.55
2022-10-26T13:49:53.397Z,2.38
2022-10-26T13:52:29.233Z,2.30
2022-10-26T13:54:59.998Z,2.30
2022-10-26T13:57:36.123Z,2.38
2022-10-26T14:00:16.204Z,2.28
2022-10-26T14:02:43.820Z,2.58
2022-10-26T14:05:14.488Z,2.70
2022-10-26T14:08:00.118Z,2.50
2022-10-26T14:10:45.069Z,2.42
2022-10-26T14:13:18.242Z,2.63
2022-10-26T14:15:46.649Z,2.47
2022-10-26T14:18:29.448Z,2.65
2022-10-26T14:21:00.118Z,2.70
2022-10-26T14:23:45.282Z,2.78
2022-10-26T14:26:21.733Z,2.60
2022-10-26T14:28:51.597Z,2.88
2022-10-26T14:31:29.381Z,3.03
2022-10-26T14:33:58.224Z,2.85
2022-10-26T14:36:39.194Z,3.03
2022-10-26T14:39:13.538Z,2.72
2022-10-26T14:41:41.098Z,2.92
2022-10-26T14:44:19.924Z,3.00
2022-10-26T14:46:47.402Z,3.45
2022-10-26T14:49:26.466Z,3.10
2022-10-26T14:52:05.201Z,3.50
2022-10-26T14:54:33.832Z,3.50
2022-10-26T14:57:08.660Z,3.50
2022-10-26T14:59:35.711Z,3.20
2022-10-26T15:02:22.047Z,3.25
2022-10-26T15:05:15.728Z,3.40
2022-10-26T15:07:44.702Z,3.10
2022-10-26T15:10:36.798Z,2.80
2022-10-26T15:13:20.162Z,2.83
2022-10-26T15:15:50.022Z,3.35
2022-10-26T15:18:28.540Z,3.53
2022-10-26T15:20:57.287Z,3.80
2022-10-26T15:23:27.871Z,4.28
2022-10-26T15:25:56.772Z,3.33
2022-10-26T15:28:30.495Z,3.70
2022-10-26T15:31:03.452Z,3.70
2022-10-26T15:33:31.846Z,3.38
2022-10-26T15:36:18.447Z,4.10
2022-10-26T15:38:46.309Z,4.15
2022-10-26T15:41:29.657Z,4.35
2022-10-26T15:43:59.151Z,4.10
2022-10-26T15:46:30.467Z,4.13
2022-10-26T15:49:00.477Z,3.55
2022-10-26T15:51:30.040Z,3.58
2022-10-26T15:54:03.516Z,3.67
2022-10-26T15:56:31.729Z,3.53
2022-10-26T15:58:59.318Z,3.45
2022-10-26T16:01:28.882Z,3.58
2022-10-26T16:03:56.368Z,3.67
2022-10-26T16:06:27.972Z,3.47
2022-10-26T16:08:58.171Z,3.63
2022-10-26T16:11:25.417Z,3.92
2022-10-26T16:13:52.383Z,3.75
2022-10-26T16:16:20.510Z,3.67
2022-10-26T16:18:58.048Z,3.75
2022-10-26T16:21:33.435Z,3.78
2022-10-26T16:24:00.590Z,4.00
2022-10-26T16:26:27.580Z,3.95
2022-10-26T16:28:54.495Z,4.32
2022-10-26T16:31:21.979Z,3.80
2022-10-26T16:33:49.001Z,4.00
2022-10-26T16:36:16.520Z,3.88
2022-10-26T16:38:43.477Z,3.80
2022-10-26T16:41:17.093Z,4.38
2022-10-26T16:43:45.035Z,3.78
2022-10-26T16:46:15.025Z,3.80
2022-10-26T16:48:44.220Z,4.25
2022-10-26T16:51:14.706Z,4.15
2022-10-26T16:53:42.615Z,3.88
2022-10-26T16:56:12.732Z,4.78
2022-10-26T16:58:40.453Z,4.45
2022-10-26T17:01:09.001Z,4.72
2022-10-26T17:03:36.626Z,4.93
2022-10-26T17:06:06.579Z,5.32
2022-10-26T17:08:35.441Z,5.70
2022-10-26T17:11:11.258Z,6.10
2022-10-26T17:13:39.776Z,5.82
2022-10-26T17:16:21.094Z,6.20
2022-10-26T17:18:48.435Z,5.80
2022-10-26T17:21:17.679Z,6.03
2022-10-26T17:23:45.396Z,6.07
2022-10-26T17:26:14.486Z,6.40
2022-10-26T17:28:42.206Z,7.30
2022-10-26T17:31:15.070Z,6.70
2022-10-26T17:33:43.923Z,7.00
2022-10-26T17:36:13.093Z,7.57
2022-10-26T17:38:42.082Z,8.38
2022-10-26T17:41:11.532Z,7.30
2022-10-26T17:43:42.382Z,7.75
2022-10-26T17:46:17.381Z,8.65
2022-10-26T17:48:45.705Z,8.20
2022-10-26T17:51:15.561Z,8.80
2022-10-26T17:53:42.852Z,8.40
2022-10-26T17:56:16.633Z,8.52
2022-10-26T17:58:43.545Z,8.45
2022-10-26T18:01:15.838Z,8.65
2022-10-26T18:03:43.290Z,8.80
2022-10-26T18:06:10.987Z,7.70
2022-10-26T18:08:39.259Z,8.63
2022-10-26T18:11:07.716Z,8.45
2022-10-26T18:13:34.872Z,8.30
2022-10-26T18:16:06.968Z,8.35
2022-10-26T18:18:34.543Z,9.10
2022-10-26T18:21:07.330Z,9.48
2022-10-26T18:23:34.549Z,10.63
2022-10-26T18:26:13.110Z,10.80
2022-10-26T18:28:41.490Z,10.68
2022-10-26T18:31:10.955Z,10.40
2022-10-26T18:33:38.490Z,10.48
2022-10-26T18:36:09.041Z,10.10
2022-10-26T18:38:36.912Z,10.98
2022-10-26T18:41:04.440Z,10.55
2022-10-26T18:43:31.347Z,11.00
2022-10-26T18:46:05.766Z,10.80
2022-10-26T18:48:32.979Z,11.00
2022-10-26T18:51:05.194Z,12.15
2022-10-26T18:53:33.445Z,11.75
2022-10-26T18:56:05.847Z,11.95
2022-10-26T18:58:35.512Z,11.98
2022-10-26T19:01:18.917Z,11.20
2022-10-26T19:03:47.063Z,12.75
2022-10-26T19:06:19.648Z,11.80
2022-10-26T19:08:47.364Z,12.50
2022-10-26T19:11:18.528Z,11.32
2022-10-26T19:13:46.189Z,11.20
2022-10-26T19:16:33.582Z,12.18
2022-10-26T19:19:11.677Z,13.05
2022-10-26T19:21:38.806Z,13.30
2022-10-26T19:24:12.167Z,14.43
2022-10-26T19:26:43.185Z,16.02
2022-10-26T19:29:16.336Z,15.70
2022-10-26T19:31:45.665Z,16.50
2022-10-26T19:34:14.336Z,16.70
2022-10-26T19:36:45.083Z,15.95
2022-10-26T19:39:14.545Z,15.65
2022-10-26T19:41:41.891Z,16.73
2022-10-26T19:44:10.717Z,16.40
2022-10-26T19:46:38.160Z,17.15
2022-10-26T19:49:05.307Z,16.20
2022-10-26T19:51:32.470Z,16.45
2022-10-26T19:54:03.752Z,20.13
2022-10-26T19:56:32.631Z,17.67
2022-10-26T19:58:59.839Z,21.13
2022-10-26T20:01:29.963Z,25.80
2022-10-26T20:03:57.661Z,24.80
2022-10-26T20:06:24.687Z,27.50
2022-10-26T20:08:51.706Z,26.95
2022-10-26T20:11:19.008Z,27.70
2022-10-26T20:13:47.431Z,27.83
2022-10-26T20:16:16.260Z,28.10
2022-10-26T20:18:47.508Z,29.52
2022-10-26T20:21:16.588Z,28.85
2022-10-26T20:23:45.140Z,30.25
2022-10-26T20:26:19.222Z,30.08
2022-10-26T20:28:49.198Z,30.23
2022-10-26T20:31:16.293Z,30.30
2022-10-26T20:33:43.471Z,30.00
2022-10-26T20:36:10.524Z,29.67
2022-10-26T20:38:39.823Z,29.85
2022-10-26T20:41:11.171Z,30.88
2022-10-26T20:43:40.112Z,32.38
2022-10-26T20:46:11.883Z,33.13
2022-10-26T20:48:39.448Z,32.53
2022-10-26T20:51:35.918Z,33.90
2022-10-26T20:54:20.892Z,35.63
2022-10-26T20:56:49.923Z,36.70
2022-10-26T20:59:40.894Z,35.83
2022-10-26T21:02:10.643Z,34.67
2022-10-26T21:04:37.609Z,35.70
2022-10-26T21:07:04.629Z,36.03
2022-10-26T21:09:34.231Z,35.38
2022-10-26T21:12:03.868Z,35.63
2022-10-26T21:14:30.972Z,34.53
2022-10-26T21:16:58.006Z,34.38
2022-10-26T21:19:24.953Z,34.72
2022-10-26T21:21:51.905Z,34.38
2022-10-26T21:24:18.898Z,34.63
2022-10-26T21:26:46.090Z,33.20
2022-10-26T21:29:13.245Z,34.55
2022-10-26T21:31:40.188Z,36.25
2022-10-26T21:34:07.240Z,33.97
2022-10-26T21:36:34.896Z,36.05
2022-10-26T21:39:05.412Z,34.53
2022-10-26T21:41:35.478Z,35.20
2022-10-26T21:44:08.939Z,34.95
2022-10-26T21:46:40.894Z,36.67
2022-10-26T21:49:07.976Z,35.83
2022-10-26T21:51:36.002Z,34.25
2022-10-26T21:54:04.119Z,34.55
2022-10-26T21:56:31.198Z,33.45
2022-10-26T21:59:01.811Z,34.45
2022-10-26T22:01:28.984Z,33.88
2022-10-26T22:03:56.238Z,34.75
2022-10-26T22:06:23.171Z,33.10
2022-10-26T22:08:50.237Z,34.25
2022-10-26T22:11:21.168Z,35.35
2022-10-26T22:13:49.916Z,34.83
2022-10-26T22:16:21.050Z,34.67
2022-10-26T22:18:49.691Z,34.83
2022-10-26T22:21:18.423Z,34.35
2022-10-26T22:23:46.481Z,34.08
2022-10-26T22:26:24.811Z,35.03
2022-10-26T22:28:53.743Z,34.47
2022-10-26T22:31:23.578Z,33.42
2022-10-26T22:33:55.271Z,35.60
2022-10-26T22:36:22.668Z,34.60
2022-10-26T22:38:50.391Z,35.47
2022-10-26T22:41:18.372Z,36.58
2022-10-26T22:43:45.528Z,35.70
2022-10-26T22:46:18.412Z,35.05
2022-10-26T22:48:47.933Z,35.70
2022-10-26T22:51:19.984Z,34.60
2022-10-26T22:53:51.668Z,34.72
2022-10-26T22:56:19.237Z,34.83
2022-10-26T22:58:46.622Z,32.90
2022-10-26T23:01:16.821Z,33.17
2022-10-26T23:03:44.672Z,34.10
2022-10-26T23:06:17.193Z,33.47
2022-10-26T23:08:44.340Z,33.75
2022-10-26T23:11:14.627Z,34.13
2022-10-26T23:13:41.734Z,33.05
2022-10-26T23:16:18.395Z,34.10
2022-10-26T23:18:45.746Z,31.77
2022-10-26T23:21:13.811Z,32.97
2022-10-26T23:23:41.670Z,33.90
2022-10-26T23:26:12.310Z,32.20
2022-10-26T23:28:40.366Z,33.70
2022-10-26T23:31:08.426Z,34.65
2022-10-26T23:33:35.475Z,32.97
2022-10-26T23:36:02.661Z,32.75
2022-10-26T23:38:29.698Z,32.20
2022-10-26T23:40:58.797Z,31.90
2022-10-26T23:43:26.936Z,32.95
2022-10-26T23:45:55.264Z,35.28
2022-10-26T23:48:22.554Z,34.53
2022-10-26T23:50:50.738Z,33.30
2022-10-26T23:53:20.511Z,33.13
2022-10-26T23:55:48.377Z,33.40
2022-10-26T23:58:16.831Z,33.65
